createdAt,value
2019-01-26T00:00:57.973Z,81.90
2019-01-26T00:03:26.449Z,82.20
2019-01-26T00:05:54.919Z,82.40
2019-01-26T00:08:23.409Z,82.70
2019-01-26T00:10:51.935Z,83.20
2019-01-26T00:13:20.417Z,83.70
2019-01-26T00:15:48.892Z,83.80
2019-01-26T00:18:17.352Z,84.40
2019-01-26T00:20:45.841Z,84.40
2019-01-26T00:23:14.310Z,84.70
2019-01-26T00:25:42.854Z,84.90
2019-01-26T00:28:11.330Z,85.10
2019-01-26T00:30:40.026Z,85.30
2019-01-26T00:33:08.517Z,85.20
2019-01-26T00:35:36.995Z,85.20
2019-01-26T00:38:05.841Z,85.10
2019-01-26T00:40:34.314Z,85.20
2019-01-26T00:43:02.868Z,85.10
2019-01-26T00:45:31.343Z,85.40
2019-01-26T00:47:59.795Z,85.30
2019-01-26T00:50:28.283Z,85.40
2019-01-26T00:52:56.746Z,85.40
2019-01-26T00:55:25.290Z,85.30
2019-01-26T00:57:53.775Z,85.30
2019-01-26T01:00:22.955Z,85.40
2019-01-26T01:02:51.585Z,85.40
2019-01-26T01:05:20.072Z,85.50
2019-01-26T01:07:48.758Z,85.40
2019-01-26T01:10:19.062Z,85.40
2019-01-26T01:12:47.529Z,85.20
2019-01-26T01:15:18.466Z,85.20
2019-01-26T01:17:47.071Z,85.20
2019-01-26T01:20:15.875Z,85.00
2019-01-26T01:22:44.421Z,85.00
2019-01-26T01:25:13.829Z,84.90
2019-01-26T01:27:42.658Z,84.90
2019-01-26T01:30:14.429Z,85.00
2019-01-26T01:32:42.985Z,85.50
2019-01-26T01:35:11.517Z,85.90
2019-01-26T01:37:40.019Z,86.40
2019-01-26T01:40:11.017Z,86.70
2019-01-26T01:42:39.753Z,87.20
2019-01-26T01:45:14.591Z,87.40
2019-01-26T01:47:43.228Z,88.00
2019-01-26T01:50:12.171Z,88.20
2019-01-26T01:52:40.759Z,88.70
2019-01-26T01:55:10.805Z,89.20
2019-01-26T01:57:39.329Z,89.70
2019-01-26T02:00:11.232Z,90.00
2019-01-26T02:02:39.690Z,90.00
2019-01-26T02:05:08.395Z,90.10
2019-01-26T02:07:36.874Z,90.40
2019-01-26T02:10:08.560Z,90.50
2019-01-26T02:12:37.073Z,90.70
2019-01-26T02:15:07.756Z,90.80
2019-01-26T02:17:36.243Z,90.80
2019-01-26T02:20:07.885Z,91.00
2019-01-26T02:22:36.355Z,91.00
2019-01-26T02:25:05.660Z,91.20
2019-01-26T02:27:34.218Z,91.70
2019-01-26T02:30:02.936Z,91.50
2019-01-26T02:32:31.413Z,91.70
2019-01-26T02:34:59.888Z,91.80
2019-01-26T02:37:28.374Z,91.80
2019-01-26T02:39:56.827Z,91.80
2019-01-26T02:42:25.372Z,91.80
2019-01-26T02:44:53.832Z,91.90
2019-01-26T02:47:22.311Z,92.00
2019-01-26T02:49:50.849Z,92.00
2019-01-26T02:52:19.323Z,92.10
2019-01-26T02:54:47.797Z,92.20
2019-01-26T02:57:16.282Z,92.20
2019-01-26T02:59:44.802Z,92.30
2019-01-26T03:02:13.282Z,92.30
2019-01-26T03:04:41.753Z,92.30
2019-01-26T03:07:10.239Z,92.40
2019-01-26T03:09:38.947Z,92.40
2019-01-26T03:12:07.429Z,92.50
2019-01-26T03:14:35.965Z,92.50
2019-01-26T03:17:06.226Z,92.60
2019-01-26T03:19:35.020Z,92.50
2019-01-26T03:22:03.505Z,92.60
2019-01-26T03:24:31.968Z,92.70
2019-01-26T03:27:00.521Z,92.80
2019-01-26T03:29:28.992Z,92.90
2019-01-26T03:31:57.473Z,93.00
2019-01-26T03:34:26.036Z,93.10
2019-01-26T03:36:54.566Z,93.00
2019-01-26T03:39:23.030Z,93.00
2019-01-26T03:41:51.504Z,93.00
2019-01-26T03:44:19.996Z,93.00
2019-01-26T03:46:48.472Z,93.10
2019-01-26T03:49:16.949Z,93.10
2019-01-26T03:51:45.494Z,93.10
2019-01-26T03:54:13.964Z,93.10
2019-01-26T03:56:42.435Z,93.20
2019-01-26T03:59:10.927Z,93.20
2019-01-26T04:01:39.405Z,93.20
2019-01-26T04:04:08.552Z,93.30
2019-01-26T04:06:37.014Z,93.20
2019-01-26T04:09:07.801Z,93.20
2019-01-26T04:11:36.260Z,93.30
2019-01-26T04:14:06.304Z,93.30
2019-01-26T04:16:34.842Z,93.30
2019-01-26T04:19:03.329Z,93.30
2019-01-26T04:21:31.777Z,93.40
2019-01-26T04:24:00.257Z,93.70
2019-01-26T04:26:28.731Z,93.20
2019-01-26T04:28:57.206Z,93.30
2019-01-26T04:31:25.778Z,93.30
2019-01-26T04:33:54.256Z,93.30
2019-01-26T04:36:22.720Z,93.30
2019-01-26T04:38:51.203Z,93.30
2019-01-26T04:41:19.678Z,93.30
2019-01-26T04:43:48.238Z,93.40
2019-01-26T04:46:16.702Z,93.40
2019-01-26T04:48:45.185Z,93.40
2019-01-26T04:51:13.660Z,93.30
2019-01-26T04:53:42.135Z,93.70
2019-01-26T04:56:10.616Z,93.30
2019-01-26T04:58:39.094Z,93.30
2019-01-26T05:01:07.568Z,93.30
2019-01-26T05:03:36.030Z,93.30
2019-01-26T05:06:04.676Z,93.40
2019-01-26T05:08:33.148Z,93.40
2019-01-26T05:11:01.619Z,93.40
2019-01-26T05:13:30.148Z,93.40
2019-01-26T05:15:58.631Z,93.60
2019-01-26T05:18:27.105Z,93.20
2019-01-26T05:20:55.586Z,93.20
2019-01-26T05:23:24.056Z,93.20
2019-01-26T05:25:52.531Z,93.20
2019-01-26T05:28:20.988Z,93.10
2019-01-26T05:30:49.558Z,93.10
2019-01-26T05:33:18.018Z,93.20
2019-01-26T05:35:46.521Z,93.20
2019-01-26T05:38:14.973Z,93.20
2019-01-26T05:40:43.442Z,93.20
2019-01-26T05:43:11.918Z,93.20
2019-01-26T05:45:40.399Z,93.20
2019-01-26T05:48:09.037Z,93.20
2019-01-26T05:50:37.518Z,93.20
2019-01-26T05:53:05.981Z,93.50
2019-01-26T05:55:34.461Z,93.20
2019-01-26T05:58:02.965Z,93.10
2019-01-26T06:00:32.602Z,93.10
2019-01-26T06:03:01.100Z,93.20
2019-01-26T06:05:29.638Z,93.10
2019-01-26T06:07:58.527Z,93.20
2019-01-26T06:10:26.998Z,93.20
2019-01-26T06:12:55.479Z,93.20
2019-01-26T06:15:23.948Z,93.20
2019-01-26T06:17:55.195Z,93.20
2019-01-26T06:20:22.605Z,93.10
2019-01-26T06:22:51.221Z,93.10
2019-01-26T06:25:20.642Z,93.10
2019-01-26T06:27:50.062Z,93.20
2019-01-26T06:30:23.608Z,93.20
2019-01-26T06:32:52.159Z,93.50
2019-01-26T06:35:20.798Z,93.20
2019-01-26T06:37:49.280Z,93.20
2019-01-26T06:40:19.558Z,93.20
2019-01-26T06:42:48.042Z,93.20
2019-01-26T06:45:18.586Z,93.20
2019-01-26T06:47:47.196Z,93.20
2019-01-26T06:50:20.126Z,93.20
2019-01-26T06:52:48.590Z,93.30
2019-01-26T06:55:17.060Z,93.30
2019-01-26T06:57:45.518Z,93.60
2019-01-26T07:00:23.358Z,93.30
2019-01-26T07:02:51.840Z,93.30
2019-01-26T07:05:31.420Z,93.40
2019-01-26T07:07:59.886Z,93.40
2019-01-26T07:10:28.406Z,93.40
2019-01-26T07:12:56.883Z,93.40
2019-01-26T07:15:25.376Z,93.30
2019-01-26T07:17:53.834Z,93.30
2019-01-26T07:20:22.376Z,93.30
2019-01-26T07:22:50.923Z,93.30
2019-01-26T07:25:19.959Z,93.40
2019-01-26T07:27:48.428Z,93.40
2019-01-26T07:30:22.604Z,93.30
2019-01-26T07:32:51.149Z,93.40
2019-01-26T07:35:19.642Z,93.30
2019-01-26T07:37:48.212Z,93.30
2019-01-26T07:40:19.818Z,93.30
2019-01-26T07:42:48.283Z,93.30
2019-01-26T07:45:17.122Z,93.20
2019-01-26T07:47:45.725Z,93.30
2019-01-26T07:50:19.677Z,93.20
2019-01-26T07:52:48.149Z,93.20
2019-01-26T07:55:16.871Z,93.20
2019-01-26T07:57:45.345Z,93.20
2019-01-26T08:00:21.966Z,93.30
2019-01-26T08:02:50.512Z,93.60
2019-01-26T08:05:19.234Z,93.20
2019-01-26T08:07:47.780Z,93.30
2019-01-26T08:10:18.996Z,93.20
2019-01-26T08:12:47.713Z,93.20
2019-01-26T08:15:25.000Z,93.20
2019-01-26T08:17:53.490Z,93.10
2019-01-26T08:20:22.541Z,93.50
2019-01-26T08:22:51.020Z,93.00
2019-01-26T08:25:19.554Z,92.90
2019-01-26T08:27:48.134Z,93.10
2019-01-26T08:30:24.179Z,93.00
2019-01-26T08:32:53.388Z,92.90
2019-01-26T08:35:22.014Z,92.90
2019-01-26T08:37:50.857Z,92.90
2019-01-26T08:40:22.713Z,92.90
2019-01-26T08:42:51.353Z,92.90
2019-01-26T08:45:19.892Z,92.90
2019-01-26T08:47:48.993Z,92.80
2019-01-26T08:50:20.123Z,92.70
2019-01-26T08:52:48.658Z,92.70
2019-01-26T08:55:18.335Z,92.60
2019-01-26T08:57:47.455Z,92.50
2019-01-26T09:00:18.829Z,92.50
2019-01-26T09:02:55.357Z,92.50
2019-01-26T09:05:26.026Z,92.50
2019-01-26T09:07:54.489Z,92.40
2019-01-26T09:10:22.956Z,92.30
2019-01-26T09:12:51.446Z,92.30
2019-01-26T09:15:20.294Z,92.20
2019-01-26T09:17:48.929Z,92.20
2019-01-26T09:20:18.333Z,92.20
2019-01-26T09:22:46.801Z,92.10
2019-01-26T09:25:15.434Z,92.10
2019-01-26T09:27:44.086Z,92.10
2019-01-26T09:30:17.894Z,92.20
2019-01-26T09:32:46.444Z,92.00
2019-01-26T09:35:15.088Z,92.00
2019-01-26T09:37:43.612Z,92.00
2019-01-26T09:40:23.298Z,91.90
2019-01-26T09:42:51.831Z,91.80
2019-01-26T09:45:21.413Z,91.90
2019-01-26T09:47:50.086Z,91.90
2019-01-26T09:50:19.920Z,91.80
2019-01-26T09:52:48.446Z,91.80
2019-01-26T09:55:18.663Z,91.80
2019-01-26T09:57:47.664Z,91.70
2019-01-26T10:00:22.120Z,91.70
2019-01-26T10:02:50.909Z,91.60
2019-01-26T10:05:19.911Z,91.60
2019-01-26T10:07:49.428Z,91.50
2019-01-26T10:10:18.744Z,91.50
2019-01-26T10:12:47.281Z,91.40
2019-01-26T10:15:18.869Z,91.40
2019-01-26T10:17:47.474Z,91.80
2019-01-26T10:20:19.098Z,91.40
2019-01-26T10:22:47.751Z,91.40
2019-01-26T10:25:17.877Z,91.40
2019-01-26T10:27:46.607Z,91.30
2019-01-26T10:30:22.413Z,91.20
2019-01-26T10:32:50.884Z,91.20
2019-01-26T10:35:19.497Z,91.20
2019-01-26T10:37:47.991Z,91.20
2019-01-26T10:40:18.105Z,91.40
2019-01-26T10:42:46.574Z,91.10
2019-01-26T10:45:15.175Z,91.10
2019-01-26T10:47:43.707Z,91.00
2019-01-26T10:50:12.321Z,91.10
2019-01-26T10:52:40.978Z,91.00
2019-01-26T10:55:11.209Z,91.00
2019-01-26T10:57:39.743Z,91.00
2019-01-26T11:00:11.379Z,90.90
2019-01-26T11:02:39.843Z,90.90
2019-01-26T11:05:08.862Z,90.90
2019-01-26T11:07:37.327Z,90.90
2019-01-26T11:10:08.908Z,91.00
2019-01-26T11:12:37.430Z,90.90
2019-01-26T11:15:09.111Z,90.90
2019-01-26T11:17:37.647Z,91.10
2019-01-26T11:20:09.555Z,91.30
2019-01-26T11:22:38.024Z,90.80
2019-01-26T11:25:09.712Z,90.80
2019-01-26T11:27:38.242Z,90.80
2019-01-26T11:30:09.872Z,91.00
2019-01-26T11:32:38.498Z,91.00
2019-01-26T11:35:10.191Z,91.00
2019-01-26T11:37:38.644Z,91.10
2019-01-26T11:40:11.414Z,91.20
2019-01-26T11:42:39.878Z,91.10
2019-01-26T11:45:29.208Z,91.20
2019-01-26T11:48:08.478Z,91.20
2019-01-26T11:50:41.332Z,91.20
2019-01-26T11:53:09.800Z,91.20
2019-01-26T11:55:52.291Z,91.20
2019-01-26T11:58:20.751Z,91.20
2019-01-26T12:00:51.027Z,91.20
2019-01-26T12:03:27.176Z,91.20
2019-01-26T12:05:57.294Z,91.20
2019-01-26T12:08:25.768Z,91.40
2019-01-26T12:10:54.236Z,91.40
2019-01-26T12:13:22.741Z,91.60
2019-01-26T12:15:51.207Z,91.50
2019-01-26T12:18:19.668Z,91.50
2019-01-26T12:20:48.136Z,91.50
2019-01-26T12:23:16.609Z,91.60
2019-01-26T12:25:45.172Z,91.60
2019-01-26T12:28:13.769Z,91.70
2019-01-26T12:30:42.245Z,91.70
2019-01-26T12:33:10.723Z,91.80
2019-01-26T12:35:39.189Z,91.80
2019-01-26T12:38:07.665Z,91.90
2019-01-26T12:40:36.135Z,92.10
2019-01-26T12:43:04.671Z,92.10
2019-01-26T12:45:33.167Z,92.30
2019-01-26T12:48:01.637Z,92.30
2019-01-26T12:50:30.108Z,92.30
2019-01-26T12:52:58.655Z,92.40
2019-01-26T12:55:27.128Z,92.50
2019-01-26T12:57:55.600Z,92.60
2019-01-26T13:00:25.906Z,92.70
2019-01-26T13:02:54.450Z,92.70
2019-01-26T13:05:23.090Z,92.70
2019-01-26T13:07:51.578Z,92.80
2019-01-26T13:10:37.512Z,92.90
2019-01-26T13:13:06.718Z,93.00
2019-01-26T13:15:35.428Z,93.00
2019-01-26T13:18:04.080Z,93.00
2019-01-26T13:20:32.695Z,93.00
2019-01-26T13:23:01.246Z,93.10
2019-01-26T13:25:29.704Z,93.00
2019-01-26T13:27:58.177Z,93.20
2019-01-26T13:30:26.648Z,93.20
2019-01-26T13:32:55.208Z,93.30
2019-01-26T13:35:23.708Z,93.20
2019-01-26T13:37:52.259Z,93.30
2019-01-26T13:40:26.062Z,93.30
2019-01-26T13:42:54.537Z,93.30
2019-01-26T13:45:23.002Z,93.40
2019-01-26T13:47:51.493Z,93.30
2019-01-26T13:50:20.017Z,93.20
2019-01-26T13:52:48.516Z,93.30
2019-01-26T13:55:22.725Z,93.40
2019-01-26T13:57:51.269Z,93.50
2019-01-26T14:00:28.741Z,93.70
2019-01-26T14:02:57.233Z,93.70
2019-01-26T14:05:25.700Z,93.80
2019-01-26T14:07:54.179Z,93.90
2019-01-26T14:10:25.586Z,93.90
2019-01-26T14:12:54.121Z,93.90
2019-01-26T14:15:23.421Z,93.90
2019-01-26T14:17:51.969Z,94.00
2019-01-26T14:20:25.346Z,94.10
2019-01-26T14:22:55.411Z,94.00
2019-01-26T14:25:26.291Z,94.00
2019-01-26T14:27:54.895Z,94.10
2019-01-26T14:30:44.394Z,94.10
2019-01-26T14:33:12.964Z,94.10
2019-01-26T14:35:41.485Z,94.10
2019-01-26T14:38:10.173Z,94.00
2019-01-26T14:40:38.648Z,94.10
2019-01-26T14:43:07.134Z,94.00
2019-01-26T14:45:35.609Z,94.00
2019-01-26T14:48:04.440Z,94.00
2019-01-26T14:50:32.928Z,93.90
2019-01-26T14:53:01.408Z,94.00
2019-01-26T14:55:31.094Z,94.10
2019-01-26T14:57:59.819Z,94.10
2019-01-26T15:00:38.728Z,94.10
2019-01-26T15:03:07.292Z,94.10
2019-01-26T15:05:35.914Z,94.10
2019-01-26T15:08:05.132Z,94.00
2019-01-26T15:10:33.613Z,94.00
2019-01-26T15:13:02.106Z,94.10
2019-01-26T15:15:30.642Z,94.10
2019-01-26T15:17:59.128Z,94.10
2019-01-26T15:20:30.620Z,94.20
2019-01-26T15:22:59.094Z,94.20
2019-01-26T15:25:28.051Z,94.30
2019-01-26T15:27:56.635Z,94.20
2019-01-26T15:30:30.872Z,94.30
2019-01-26T15:32:59.432Z,94.30
2019-01-26T15:35:27.907Z,94.30
2019-01-26T15:37:56.565Z,94.30
2019-01-26T15:40:25.108Z,94.30
2019-01-26T15:42:53.664Z,94.30
2019-01-26T15:45:30.774Z,94.40
2019-01-26T15:47:59.240Z,94.40
2019-01-26T15:50:27.771Z,94.40
2019-01-26T15:52:56.244Z,94.50
2019-01-26T15:55:26.433Z,94.50
2019-01-26T15:57:54.909Z,94.50
2019-01-26T16:03:28.167Z,94.50
2019-01-26T16:05:56.727Z,94.60
2019-01-26T16:08:25.271Z,94.60
2019-01-26T16:10:53.740Z,94.60
2019-01-26T16:13:22.255Z,94.70
2019-01-26T16:15:50.781Z,94.60
2019-01-26T16:18:19.483Z,94.60
2019-01-26T16:20:48.053Z,94.60
2019-01-26T16:23:16.521Z,94.70
2019-01-26T16:25:44.991Z,94.70
2019-01-26T16:28:13.473Z,94.70
2019-01-26T16:30:42.145Z,94.70
2019-01-26T16:33:10.617Z,94.70
2019-01-26T16:35:39.112Z,94.70
2019-01-26T16:38:07.720Z,94.80
2019-01-26T16:40:36.932Z,94.80
2019-01-26T16:43:05.639Z,94.70
2019-01-26T16:45:38.233Z,94.70
2019-01-26T16:48:08.732Z,94.80
2019-01-26T16:50:37.297Z,94.90
2019-01-26T16:53:05.998Z,95.30
2019-01-26T16:55:34.509Z,94.90
2019-01-26T16:58:02.993Z,95.00
2019-01-26T17:00:42.561Z,95.10
2019-01-26T17:03:11.180Z,95.00
2019-01-26T17:05:40.007Z,95.00
2019-01-26T17:08:09.605Z,95.00
2019-01-26T17:10:38.535Z,95.00
2019-01-26T17:13:07.154Z,95.00
2019-01-26T17:15:35.643Z,95.00
2019-01-26T17:18:05.356Z,95.10
2019-01-26T17:20:35.872Z,95.00
2019-01-26T17:23:04.884Z,95.30
2019-01-26T17:25:33.471Z,95.00
2019-01-26T17:28:01.964Z,95.10
2019-01-26T17:30:33.512Z,95.00
2019-01-26T17:33:07.315Z,95.00
2019-01-26T17:35:32.168Z,95.00
2019-01-26T17:38:00.716Z,94.80
2019-01-26T17:40:29.179Z,95.00
2019-01-26T17:42:57.676Z,94.90
2019-01-26T17:45:26.269Z,94.90
2019-01-26T17:47:54.849Z,94.90
2019-01-26T17:50:25.355Z,95.00
2019-01-26T17:52:53.855Z,94.90
2019-01-26T17:55:22.478Z,94.90
2019-01-26T17:57:51.123Z,94.90
2019-01-26T18:00:32.354Z,94.80
2019-01-26T18:03:00.918Z,94.90
2019-01-26T18:05:29.465Z,94.80
2019-01-26T18:07:58.009Z,94.80
2019-01-26T18:10:27.132Z,94.80
2019-01-26T18:12:56.746Z,95.10
2019-01-26T18:15:25.228Z,94.70
2019-01-26T18:17:53.704Z,94.60
2019-01-26T18:20:24.808Z,94.50
2019-01-26T18:22:53.425Z,94.50
2019-01-26T18:25:23.533Z,94.50
2019-01-26T18:27:51.992Z,94.50
2019-01-26T18:30:26.649Z,94.40
2019-01-26T18:32:55.193Z,94.30
2019-01-26T18:35:23.818Z,94.30
2019-01-26T18:37:52.285Z,94.20
2019-01-26T18:40:25.491Z,94.20
2019-01-26T18:42:54.217Z,94.10
2019-01-26T18:45:25.513Z,94.00
2019-01-26T18:47:54.114Z,94.00
2019-01-26T18:50:24.937Z,94.30
2019-01-26T18:52:53.589Z,93.90
2019-01-26T18:55:22.130Z,93.90
2019-01-26T18:57:50.597Z,93.80
2019-01-26T19:00:21.409Z,93.80
2019-01-26T19:02:53.192Z,93.80
2019-01-26T19:05:23.088Z,93.70
2019-01-26T19:07:51.582Z,93.60
2019-01-26T19:10:20.044Z,93.60
2019-01-26T19:12:48.515Z,93.60
2019-01-26T19:15:22.845Z,93.50
2019-01-26T19:17:51.319Z,93.50
2019-01-26T19:20:19.892Z,93.40
2019-01-26T19:22:48.355Z,93.40
2019-01-26T19:25:18.763Z,93.30
2019-01-26T19:27:47.884Z,93.20
2019-01-26T19:30:19.668Z,93.20
2019-01-26T19:32:48.218Z,93.20
2019-01-26T19:35:16.692Z,93.20
2019-01-26T19:37:45.250Z,93.10
2019-01-26T19:40:24.561Z,93.00
2019-01-26T19:42:53.088Z,93.00
2019-01-26T19:45:23.390Z,92.90
2019-01-26T19:47:51.916Z,92.80
2019-01-26T19:50:24.857Z,92.70
2019-01-26T19:52:54.070Z,92.80
2019-01-26T19:55:23.801Z,92.70
2019-01-26T19:57:52.492Z,92.70
2019-01-26T20:00:21.034Z,92.70
2019-01-26T20:02:49.525Z,92.60
2019-01-26T20:05:22.966Z,92.50
2019-01-26T20:07:51.614Z,92.50
2019-01-26T20:10:20.924Z,92.40
2019-01-26T20:12:49.548Z,92.40
2019-01-26T20:15:22.705Z,92.30
2019-01-26T20:17:51.423Z,92.30
2019-01-26T20:20:31.926Z,92.30
2019-01-26T20:23:00.410Z,92.30
2019-01-26T20:25:29.147Z,92.20
2019-01-26T20:27:57.620Z,92.20
2019-01-26T20:30:29.003Z,92.20
2019-01-26T20:32:57.817Z,92.20
2019-01-26T20:35:26.300Z,92.20
2019-01-26T20:37:55.099Z,92.20
2019-01-26T20:40:23.707Z,92.20
2019-01-26T20:42:52.258Z,92.20
2019-01-26T20:45:26.128Z,92.30
2019-01-26T20:47:54.599Z,92.30
2019-01-26T20:50:23.332Z,92.30
2019-01-26T20:52:51.957Z,92.10
2019-01-26T20:55:20.519Z,92.30
2019-01-26T20:57:49.137Z,92.20
2019-01-26T21:00:25.777Z,92.20
2019-01-26T21:02:54.343Z,92.20
2019-01-26T21:05:22.799Z,92.20
2019-01-26T21:07:51.346Z,92.20
2019-01-26T21:10:23.031Z,92.20
2019-01-26T21:12:51.932Z,92.20
2019-01-26T21:15:20.637Z,92.20
2019-01-26T21:17:49.127Z,92.10
2019-01-26T21:20:19.876Z,92.20
2019-01-26T21:22:48.518Z,92.20
2019-01-26T21:25:17.334Z,92.20
2019-01-26T21:27:46.061Z,92.30
2019-01-26T21:30:20.766Z,92.30
2019-01-26T21:32:49.344Z,92.40
2019-01-26T21:35:18.136Z,92.50
2019-01-26T21:37:46.600Z,92.50
2019-01-26T21:40:20.588Z,92.60
2019-01-26T21:42:49.210Z,92.60
2019-01-26T21:45:18.213Z,92.60
2019-01-26T21:47:46.770Z,92.70
2019-01-26T21:50:18.314Z,92.70
2019-01-26T21:52:46.791Z,92.70
2019-01-26T21:55:15.317Z,92.70
2019-01-26T21:57:43.811Z,92.70
2019-01-26T22:00:15.506Z,92.70
2019-01-26T22:02:44.017Z,92.80
2019-01-26T22:05:13.148Z,92.80
2019-01-26T22:07:41.703Z,92.90
2019-01-26T22:10:15.332Z,92.80
2019-01-26T22:12:43.825Z,92.70
2019-01-26T22:15:15.399Z,93.00
2019-01-26T22:17:43.952Z,92.40
2019-01-26T22:20:15.320Z,92.60
2019-01-26T22:22:43.793Z,92.30
2019-01-26T22:25:13.994Z,92.20
2019-01-26T22:27:42.533Z,92.20
2019-01-26T22:30:14.209Z,92.00
2019-01-26T22:32:42.690Z,91.90
2019-01-26T22:35:11.415Z,91.80
2019-01-26T22:37:39.893Z,91.80
2019-01-26T22:40:11.443Z,91.90
2019-01-26T22:42:39.990Z,91.80
2019-01-26T22:45:10.801Z,91.80
2019-01-26T22:47:39.357Z,91.80
2019-01-26T22:50:10.966Z,91.70
2019-01-26T22:52:39.492Z,91.70
2019-01-26T22:55:10.868Z,91.70
2019-01-26T22:57:39.403Z,91.70
2019-01-26T23:00:53.756Z,91.60
2019-01-26T23:03:36.571Z,91.60
2019-01-26T23:06:29.268Z,91.50
2019-01-26T23:09:00.817Z,91.50
2019-01-26T23:11:35.005Z,91.40
2019-01-26T23:14:09.415Z,91.40
2019-01-26T23:16:52.708Z,91.30
2019-01-26T23:19:33.296Z,91.60
2019-01-26T23:22:16.554Z,91.20
2019-01-26T23:25:07.865Z,91.20
2019-01-26T23:28:03.751Z,91.20
2019-01-26T23:30:51.714Z,91.30
2019-01-26T23:33:20.183Z,91.30
2019-01-26T23:35:48.668Z,91.30
2019-01-26T23:38:17.148Z,91.30
2019-01-26T23:40:45.620Z,91.30
2019-01-26T23:43:14.064Z,91.20
2019-01-26T23:45:42.538Z,91.20
2019-01-26T23:48:11.018Z,91.50
2019-01-26T23:50:39.491Z,91.20
2019-01-26T23:53:07.956Z,91.10
2019-01-26T23:55:36.474Z,91.00
2019-01-26T23:58:04.964Z,91.00
